createdAt,value
2022-07-29T00:00:24.778Z,29.50
2022-07-29T00:02:57.475Z,29.50
2022-07-29T00:05:30.489Z,29.50
2022-07-29T00:08:03.237Z,29.50
2022-07-29T00:10:36.165Z,29.50
2022-07-29T00:13:08.994Z,29.50
2022-07-29T00:15:41.937Z,29.50
2022-07-29T00:18:14.523Z,29.50
2022-07-29T00:20:46.917Z,29.50
2022-07-29T00:23:19.437Z,29.50
2022-07-29T00:25:52.082Z,29.50
2022-07-29T00:28:24.732Z,29.50
2022-07-29T00:30:57.202Z,29.50
2022-07-29T00:33:30.345Z,29.40
2022-07-29T00:36:02.964Z,29.40
2022-07-29T00:38:35.287Z,29.40
2022-07-29T00:41:07.945Z,29.40
2022-07-29T00:43:40.465Z,29.40
2022-07-29T00:46:13.254Z,29.40
2022-07-29T00:48:46.258Z,29.40
2022-07-29T00:51:19.034Z,29.40
2022-07-29T00:53:52.239Z,29.40
2022-07-29T00:56:24.926Z,29.40
2022-07-29T00:58:58.833Z,29.30
2022-07-29T01:01:31.413Z,29.30
2022-07-29T01:04:03.870Z,29.30
2022-07-29T01:06:37.344Z,29.30
2022-07-29T01:09:10.840Z,29.30
2022-07-29T01:11:45.585Z,29.30
2022-07-29T01:14:18.860Z,29.30
2022-07-29T01:17:04.596Z,29.20
2022-07-29T01:19:43.136Z,29.20
2022-07-29T01:22:28.213Z,29.20
2022-07-29T01:25:22.061Z,29.20
2022-07-29T01:28:32.897Z,29.20
2022-07-29T01:31:08.607Z,29.20
2022-07-29T01:33:49.899Z,29.20
2022-07-29T01:36:37.630Z,29.20
2022-07-29T01:39:21.221Z,29.20
2022-07-29T01:42:28.110Z,29.10
2022-07-29T01:45:20.043Z,29.10
2022-07-29T01:48:14.810Z,29.10
2022-07-29T01:50:51.919Z,29.00
2022-07-29T01:53:38.002Z,29.00
2022-07-29T01:56:11.594Z,29.00
2022-07-29T01:58:47.029Z,29.00
2022-07-29T02:01:20.676Z,28.90
2022-07-29T02:03:56.263Z,28.90
2022-07-29T02:06:32.296Z,28.90
2022-07-29T02:09:06.594Z,28.90
2022-07-29T02:11:44.176Z,28.80
2022-07-29T02:14:19.205Z,28.80
2022-07-29T02:16:55.516Z,28.80
2022-07-29T02:19:30.785Z,28.80
2022-07-29T02:22:04.469Z,28.80
2022-07-29T02:24:41.561Z,28.80
2022-07-29T02:27:15.578Z,28.80
2022-07-29T02:29:50.436Z,28.80
2022-07-29T02:32:25.834Z,28.90
2022-07-29T02:34:59.793Z,28.80
2022-07-29T02:37:33.506Z,28.80
2022-07-29T02:40:10.519Z,28.80
2022-07-29T02:42:45.527Z,28.90
2022-07-29T02:45:18.243Z,28.80
2022-07-29T02:47:52.329Z,28.80
2022-07-29T02:50:41.928Z,28.80
2022-07-29T02:53:27.123Z,28.80
2022-07-29T02:56:19.553Z,28.80
2022-07-29T02:59:11.920Z,28.80
2022-07-29T03:02:02.264Z,28.80
2022-07-29T03:04:53.176Z,28.80
2022-07-29T03:07:39.240Z,28.80
2022-07-29T03:10:17.247Z,28.80
2022-07-29T03:12:56.540Z,28.80
2022-07-29T03:16:02.834Z,28.80
2022-07-29T03:18:41.090Z,28.80
2022-07-29T03:21:20.290Z,28.80
2022-07-29T03:24:10.069Z,28.80
2022-07-29T03:27:03.811Z,28.80
2022-07-29T03:29:49.901Z,28.80
2022-07-29T03:32:29.285Z,28.70
2022-07-29T03:35:19.024Z,28.80
2022-07-29T03:37:55.854Z,28.70
2022-07-29T03:40:44.107Z,28.70
2022-07-29T03:43:18.745Z,28.70
2022-07-29T03:45:55.543Z,28.70
2022-07-29T03:48:30.597Z,28.70
2022-07-29T03:51:03.664Z,28.70
2022-07-29T03:53:37.828Z,28.70
2022-07-29T03:56:13.392Z,28.70
2022-07-29T03:58:46.338Z,28.70
2022-07-29T04:01:20.049Z,28.60
2022-07-29T04:03:52.994Z,28.60
2022-07-29T04:06:26.976Z,28.60
2022-07-29T04:08:59.607Z,28.60
2022-07-29T04:11:32.156Z,28.60
2022-07-29T04:14:05.350Z,28.60
2022-07-29T04:16:38.050Z,28.60
2022-07-29T04:19:10.555Z,28.60
2022-07-29T04:21:43.996Z,28.60
2022-07-29T04:24:17.834Z,28.60
2022-07-29T04:26:50.880Z,28.60
2022-07-29T04:29:23.597Z,28.60
2022-07-29T04:31:56.022Z,28.50
2022-07-29T04:34:28.639Z,28.50
2022-07-29T04:37:01.101Z,28.50
2022-07-29T04:39:33.752Z,28.60
2022-07-29T04:42:06.241Z,28.60
2022-07-29T04:44:42.980Z,28.60
2022-07-29T04:47:15.983Z,28.60
2022-07-29T04:49:48.483Z,28.60
2022-07-29T04:52:21.185Z,28.60
2022-07-29T04:54:53.691Z,28.70
2022-07-29T04:57:26.437Z,28.80
2022-07-29T04:59:59.200Z,28.90
2022-07-29T05:02:31.885Z,29.10
2022-07-29T05:05:04.981Z,29.40
2022-07-29T05:07:37.647Z,29.60
2022-07-29T05:10:10.643Z,29.90
2022-07-29T05:12:43.277Z,30.20
2022-07-29T05:15:16.022Z,30.50
2022-07-29T05:17:48.699Z,30.70
2022-07-29T05:20:27.255Z,30.90
2022-07-29T05:23:01.022Z,31.00
2022-07-29T05:25:43.310Z,31.20
2022-07-29T05:28:17.783Z,31.40
2022-07-29T05:30:50.875Z,31.70
2022-07-29T05:33:34.903Z,31.90
2022-07-29T05:36:09.390Z,32.30
2022-07-29T05:38:42.162Z,32.50
2022-07-29T05:41:14.905Z,32.80
2022-07-29T05:43:47.626Z,33.00
2022-07-29T05:46:20.857Z,33.30
2022-07-29T05:48:53.574Z,33.40
2022-07-29T05:51:26.167Z,33.50
2022-07-29T05:53:58.844Z,33.50
2022-07-29T05:56:31.383Z,33.60
2022-07-29T05:59:04.534Z,33.60
2022-07-29T06:01:50.565Z,33.70
2022-07-29T06:04:23.413Z,33.80
2022-07-29T06:06:56.265Z,34.00
2022-07-29T06:09:29.388Z,34.20
2022-07-29T06:12:02.539Z,34.30
2022-07-29T06:14:35.258Z,34.40
2022-07-29T06:17:08.212Z,34.50
2022-07-29T06:19:40.751Z,34.70
2022-07-29T06:22:13.425Z,34.80
2022-07-29T06:24:46.177Z,34.90
2022-07-29T06:27:18.849Z,35.00
2022-07-29T06:29:51.563Z,34.90
2022-07-29T06:32:27.405Z,34.80
2022-07-29T06:35:32.994Z,34.70
2022-07-29T06:37:53.825Z,34.50
2022-07-29T06:40:46.533Z,34.20
2022-07-29T06:43:19.369Z,34.00
2022-07-29T06:45:51.914Z,33.80
2022-07-29T06:48:24.583Z,33.60
2022-07-29T06:50:57.315Z,33.40
2022-07-29T06:53:30.295Z,33.30
2022-07-29T06:56:04.711Z,33.10
2022-07-29T06:58:37.930Z,33.00
2022-07-29T07:01:10.587Z,32.90
2022-07-29T07:03:46.499Z,32.80
2022-07-29T07:06:19.545Z,32.70
2022-07-29T07:08:52.048Z,32.70
2022-07-29T07:11:24.724Z,32.70
2022-07-29T07:14:02.449Z,32.70
2022-07-29T07:16:36.369Z,32.60
2022-07-29T07:19:09.130Z,32.60
2022-07-29T07:21:41.791Z,32.50
2022-07-29T07:24:15.877Z,32.50
2022-07-29T07:26:48.781Z,32.50
2022-07-29T07:29:21.481Z,32.50
2022-07-29T07:31:58.843Z,32.50
2022-07-29T07:34:33.440Z,32.50
2022-07-29T07:37:06.830Z,32.50
2022-07-29T07:39:39.444Z,32.40
2022-07-29T07:42:14.121Z,32.40
2022-07-29T07:45:12.244Z,32.40
2022-07-29T07:47:39.985Z,32.40
2022-07-29T07:50:18.399Z,32.50
2022-07-29T07:52:53.898Z,32.40
2022-07-29T07:55:27.849Z,32.50
2022-07-29T07:58:00.487Z,32.40
2022-07-29T08:00:33.846Z,32.40
2022-07-29T08:03:10.365Z,32.40
2022-07-29T08:05:51.977Z,32.40
2022-07-29T08:08:24.613Z,32.40
2022-07-29T08:10:57.572Z,32.40
2022-07-29T08:13:31.491Z,32.40
2022-07-29T08:16:12.990Z,32.50
2022-07-29T08:18:47.177Z,32.50
2022-07-29T08:21:19.920Z,32.50
2022-07-29T08:24:15.628Z,32.50
2022-07-29T08:26:48.411Z,32.50
2022-07-29T08:29:21.079Z,32.50
2022-07-29T08:31:54.006Z,32.50
2022-07-29T08:34:27.917Z,32.50
2022-07-29T08:37:00.932Z,32.50
2022-07-29T08:39:33.453Z,32.50
2022-07-29T08:42:07.346Z,32.60
2022-07-29T08:44:40.246Z,32.60
2022-07-29T08:47:16.052Z,32.60
2022-07-29T08:49:49.691Z,32.60
2022-07-29T08:52:25.501Z,32.70
2022-07-29T08:54:58.275Z,32.60
2022-07-29T08:57:31.475Z,32.60
2022-07-29T09:00:11.641Z,32.50
2022-07-29T09:02:48.031Z,32.50
2022-07-29T09:05:21.292Z,32.50
2022-07-29T09:07:54.245Z,32.50
2022-07-29T09:10:27.014Z,32.50
2022-07-29T09:12:59.829Z,32.50
2022-07-29T09:15:32.618Z,32.40
2022-07-29T09:18:05.210Z,32.40
2022-07-29T09:20:56.197Z,32.40
2022-07-29T09:23:28.694Z,32.40
2022-07-29T09:26:07.067Z,32.50
2022-07-29T09:28:43.606Z,32.50
2022-07-29T09:31:16.476Z,32.60
2022-07-29T09:33:51.818Z,32.60
2022-07-29T09:36:24.524Z,32.70
2022-07-29T09:39:02.245Z,32.70
2022-07-29T09:41:55.806Z,32.70
2022-07-29T09:44:28.486Z,32.80
2022-07-29T09:47:09.925Z,32.80
2022-07-29T09:50:00.801Z,32.80
2022-07-29T09:52:45.393Z,32.80
2022-07-29T09:55:19.906Z,32.90
2022-07-29T09:57:52.666Z,32.90
2022-07-29T10:00:28.982Z,32.80
2022-07-29T10:03:02.734Z,32.80
2022-07-29T10:05:36.036Z,32.80
2022-07-29T10:08:10.161Z,32.90
2022-07-29T10:10:44.134Z,32.90
2022-07-29T10:13:17.180Z,32.90
2022-07-29T10:15:52.382Z,32.90
2022-07-29T10:18:25.181Z,32.90
2022-07-29T10:20:58.282Z,33.00
2022-07-29T10:23:46.548Z,33.00
2022-07-29T10:26:21.436Z,32.90
2022-07-29T10:28:54.097Z,33.00
2022-07-29T10:31:55.041Z,33.00
2022-07-29T10:35:04.969Z,33.00
2022-07-29T10:37:58.789Z,33.00
2022-07-29T10:41:19.488Z,33.00
2022-07-29T10:43:54.803Z,33.00
2022-07-29T10:46:28.264Z,33.00
2022-07-29T10:49:26.127Z,33.00
2022-07-29T10:52:06.448Z,33.00
2022-07-29T10:54:42.517Z,32.90
2022-07-29T10:57:52.756Z,32.90
2022-07-29T11:00:30.765Z,32.90
2022-07-29T11:03:04.737Z,32.90
2022-07-29T11:05:59.784Z,32.70
2022-07-29T11:08:32.718Z,32.70
2022-07-29T11:11:22.130Z,32.60
2022-07-29T11:13:57.035Z,32.60
2022-07-29T11:17:06.786Z,32.60
2022-07-29T11:19:45.705Z,32.60
2022-07-29T11:22:43.024Z,32.60
2022-07-29T11:25:50.831Z,32.50
2022-07-29T11:28:25.082Z,32.40
2022-07-29T11:30:58.663Z,32.30
2022-07-29T11:33:54.694Z,32.20
2022-07-29T11:36:28.596Z,32.10
2022-07-29T11:39:36.795Z,32.10
2022-07-29T11:48:31.449Z,31.90
2022-07-29T11:54:06.829Z,31.80
2022-07-29T11:56:49.134Z,31.80
2022-07-29T11:59:23.228Z,31.70
2022-07-29T12:05:00.753Z,31.70
2022-07-29T12:07:46.009Z,31.70
2022-07-29T12:10:30.598Z,31.60
2022-07-29T12:13:03.781Z,31.60
2022-07-29T12:15:46.348Z,31.60
2022-07-29T12:18:24.015Z,31.60
2022-07-29T12:21:03.897Z,31.60
2022-07-29T12:23:36.554Z,31.60
2022-07-29T12:26:10.883Z,31.60
2022-07-29T12:28:44.304Z,31.60
2022-07-29T12:31:42.738Z,31.60
2022-07-29T12:34:20.185Z,31.50
2022-07-29T12:36:52.844Z,31.50
2022-07-29T12:39:27.707Z,31.50
2022-07-29T12:42:04.047Z,31.60
2022-07-29T12:44:47.709Z,31.60
2022-07-29T12:47:21.279Z,31.60
2022-07-29T12:50:10.656Z,31.60
2022-07-29T12:52:45.141Z,31.60
2022-07-29T12:55:18.016Z,31.50
2022-07-29T12:57:53.538Z,31.60
2022-07-29T13:00:26.388Z,31.50
2022-07-29T13:03:00.823Z,31.60
2022-07-29T13:05:49.211Z,31.60
2022-07-29T13:08:22.780Z,31.50
2022-07-29T13:10:55.807Z,31.60
2022-07-29T13:13:28.517Z,31.60
2022-07-29T13:16:09.892Z,31.60
2022-07-29T13:18:42.683Z,31.60
2022-07-29T13:21:16.941Z,31.60
2022-07-29T13:23:51.597Z,31.60
2022-07-29T13:26:24.213Z,31.60
2022-07-29T13:28:57.058Z,31.60
2022-07-29T13:31:29.799Z,31.60
2022-07-29T13:34:02.441Z,31.60
2022-07-29T13:36:38.705Z,31.60
2022-07-29T13:39:13.892Z,31.60
2022-07-29T13:41:46.509Z,31.70
2022-07-29T13:44:19.117Z,31.70
2022-07-29T13:46:52.004Z,31.80
2022-07-29T13:49:24.584Z,31.80
2022-07-29T13:51:57.303Z,31.80
2022-07-29T13:54:30.366Z,31.80
2022-07-29T13:57:02.938Z,31.70
2022-07-29T13:59:36.356Z,31.80
2022-07-29T14:02:09.308Z,31.70
2022-07-29T14:04:41.895Z,31.70
2022-07-29T14:07:16.295Z,31.60
2022-07-29T14:09:49.282Z,31.60
2022-07-29T14:12:22.213Z,31.60
2022-07-29T14:14:54.732Z,31.60
2022-07-29T14:17:27.490Z,31.60
2022-07-29T14:20:00.148Z,31.60
2022-07-29T14:22:32.858Z,31.60
2022-07-29T14:25:11.294Z,31.60
2022-07-29T14:27:47.456Z,31.60
2022-07-29T14:30:20.088Z,31.50
2022-07-29T14:32:52.780Z,31.50
2022-07-29T14:35:25.460Z,31.50
2022-07-29T14:37:58.500Z,31.40
2022-07-29T14:40:31.282Z,31.40
2022-07-29T14:43:04.086Z,31.40
2022-07-29T14:45:36.793Z,31.40
2022-07-29T14:48:09.534Z,31.40
2022-07-29T14:50:45.419Z,31.40
2022-07-29T14:53:18.032Z,31.40
2022-07-29T14:55:50.953Z,31.40
2022-07-29T14:58:24.011Z,31.30
2022-07-29T15:00:57.590Z,31.30
2022-07-29T15:03:30.254Z,31.30
2022-07-29T15:06:06.561Z,31.20
2022-07-29T15:08:39.103Z,31.20
2022-07-29T15:11:11.646Z,31.20
2022-07-29T15:13:44.210Z,31.20
2022-07-29T15:16:16.981Z,31.30
2022-07-29T15:18:49.539Z,31.30
2022-07-29T15:21:22.124Z,31.30
2022-07-29T15:23:54.705Z,31.20
2022-07-29T15:26:27.511Z,31.20
2022-07-29T15:29:00.727Z,31.20
2022-07-29T15:31:36.581Z,31.20
2022-07-29T15:34:09.199Z,31.10
2022-07-29T15:36:52.001Z,31.10
2022-07-29T15:39:25.490Z,31.10
2022-07-29T15:41:58.252Z,31.10
2022-07-29T15:44:31.139Z,31.00
2022-07-29T15:47:03.980Z,31.00
2022-07-29T15:49:47.860Z,31.00
2022-07-29T15:52:26.025Z,31.00
2022-07-29T15:54:59.084Z,31.00
2022-07-29T15:57:31.625Z,31.00
2022-07-29T16:00:06.132Z,31.10
2022-07-29T16:02:41.583Z,31.10
2022-07-29T16:05:14.130Z,31.10
2022-07-29T16:07:46.795Z,31.10
2022-07-29T16:10:19.406Z,31.10
2022-07-29T16:12:51.979Z,31.10
2022-07-29T16:15:24.818Z,31.10
2022-07-29T16:17:57.334Z,31.10
2022-07-29T16:20:29.913Z,31.10
2022-07-29T16:23:02.474Z,31.00
2022-07-29T16:25:58.772Z,31.00
2022-07-29T16:28:27.967Z,31.00
2022-07-29T16:31:00.690Z,31.00
2022-07-29T16:33:55.291Z,31.00
2022-07-29T16:36:25.859Z,31.00
2022-07-29T16:38:58.495Z,31.00
2022-07-29T16:41:31.096Z,31.00
2022-07-29T16:44:03.811Z,31.00
2022-07-29T16:46:37.554Z,31.00
2022-07-29T16:49:18.366Z,31.00
2022-07-29T16:51:52.173Z,31.00
2022-07-29T16:54:24.942Z,31.00
2022-07-29T16:56:57.798Z,31.00
2022-07-29T16:59:30.432Z,31.00
2022-07-29T17:02:03.316Z,31.00
2022-07-29T17:04:36.014Z,31.00
2022-07-29T17:07:08.713Z,31.00
2022-07-29T17:09:41.599Z,30.90
2022-07-29T17:12:14.318Z,30.90
2022-07-29T17:14:46.924Z,30.90
2022-07-29T17:17:20.691Z,30.90
2022-07-29T17:20:11.872Z,30.90
2022-07-29T17:22:50.093Z,30.80
2022-07-29T17:25:22.675Z,30.80
2022-07-29T17:28:00.532Z,30.80
2022-07-29T17:30:33.612Z,30.80
2022-07-29T17:33:06.290Z,30.80
2022-07-29T17:35:57.208Z,30.80
2022-07-29T17:38:29.814Z,30.80
2022-07-29T17:41:02.521Z,30.80
2022-07-29T17:43:47.082Z,30.70
2022-07-29T17:46:21.337Z,30.70
2022-07-29T17:48:56.044Z,30.70
2022-07-29T17:51:29.022Z,30.70
2022-07-29T17:54:01.696Z,30.70
2022-07-29T17:56:34.438Z,30.70
2022-07-29T17:59:09.647Z,30.70
2022-07-29T18:01:42.354Z,30.70
2022-07-29T18:04:20.264Z,30.60
2022-07-29T18:06:52.896Z,30.60
2022-07-29T18:09:25.543Z,30.70
2022-07-29T18:11:58.096Z,30.60
2022-07-29T18:14:34.658Z,30.60
2022-07-29T18:17:20.235Z,30.60
2022-07-29T18:19:53.267Z,30.60
2022-07-29T18:22:25.989Z,30.60
2022-07-29T18:24:58.673Z,30.60
2022-07-29T18:27:31.327Z,30.60
2022-07-29T18:30:05.757Z,30.50
2022-07-29T18:32:38.442Z,30.50
2022-07-29T18:35:11.104Z,30.60
2022-07-29T18:38:01.539Z,30.50
2022-07-29T18:40:35.674Z,30.50
2022-07-29T18:43:09.510Z,30.50
2022-07-29T18:45:42.415Z,30.50
2022-07-29T18:48:15.343Z,30.50
2022-07-29T18:50:48.329Z,30.50
2022-07-29T18:53:20.942Z,30.50
2022-07-29T18:55:57.325Z,30.40
2022-07-29T18:58:33.640Z,30.40
2022-07-29T19:01:06.732Z,30.50
2022-07-29T19:03:39.323Z,30.40
2022-07-29T19:06:11.942Z,30.40
2022-07-29T19:08:44.491Z,30.40
2022-07-29T19:11:16.941Z,30.40
2022-07-29T19:13:49.873Z,30.40
2022-07-29T19:16:22.479Z,30.40
2022-07-29T19:18:55.155Z,30.40
2022-07-29T19:21:29.017Z,30.30
2022-07-29T19:24:06.564Z,30.30
2022-07-29T19:26:46.882Z,30.30
2022-07-29T19:29:19.595Z,30.30
2022-07-29T19:31:52.220Z,30.30
2022-07-29T19:34:24.866Z,30.30
2022-07-29T19:36:57.711Z,30.30
2022-07-29T19:39:34.912Z,30.30
2022-07-29T19:42:08.692Z,30.30
2022-07-29T19:44:41.233Z,30.20
2022-07-29T19:47:17.499Z,30.20
2022-07-29T19:49:50.131Z,30.20
2022-07-29T19:52:22.802Z,30.20
2022-07-29T19:54:55.592Z,30.20
2022-07-29T19:57:28.329Z,30.20
2022-07-29T20:00:14.395Z,30.20
2022-07-29T20:02:47.619Z,30.20
2022-07-29T20:05:20.465Z,30.20
2022-07-29T20:07:53.393Z,30.20
2022-07-29T20:10:26.212Z,30.20
2022-07-29T20:12:58.914Z,30.20
2022-07-29T20:15:31.624Z,30.20
2022-07-29T20:18:04.532Z,30.20
2022-07-29T20:20:37.140Z,30.20
2022-07-29T20:23:09.830Z,30.20
2022-07-29T20:25:42.970Z,30.20
2022-07-29T20:28:15.677Z,30.20
2022-07-29T20:30:48.421Z,30.20
2022-07-29T20:33:21.846Z,30.20
2022-07-29T20:35:54.559Z,30.20
2022-07-29T20:38:27.107Z,30.20
2022-07-29T20:40:59.486Z,30.10
2022-07-29T20:43:35.855Z,30.10
2022-07-29T20:46:11.797Z,30.10
2022-07-29T20:48:44.794Z,30.10
2022-07-29T20:51:17.540Z,30.10
2022-07-29T20:53:50.122Z,30.10
2022-07-29T20:56:23.268Z,30.10
2022-07-29T20:58:55.903Z,30.10
2022-07-29T21:01:28.504Z,30.10
2022-07-29T21:04:02.200Z,30.20
2022-07-29T21:06:35.247Z,30.20
2022-07-29T21:09:07.853Z,30.10
2022-07-29T21:11:44.797Z,30.20
2022-07-29T21:14:41.089Z,30.10
2022-07-29T21:17:14.377Z,30.10
2022-07-29T21:19:47.395Z,30.20
2022-07-29T21:22:23.700Z,30.20
2022-07-29T21:24:56.397Z,30.20
2022-07-29T21:27:47.381Z,30.20
2022-07-29T21:30:20.389Z,30.10
2022-07-29T21:32:54.162Z,30.20
2022-07-29T21:35:45.256Z,30.20
2022-07-29T21:38:19.702Z,30.20
2022-07-29T21:40:53.499Z,30.20
2022-07-29T21:43:29.137Z,30.20
2022-07-29T21:46:01.980Z,30.20
2022-07-29T21:48:34.708Z,30.20
2022-07-29T21:51:07.288Z,30.20
2022-07-29T21:53:40.014Z,30.20
2022-07-29T21:56:14.870Z,30.20
2022-07-29T21:58:47.748Z,30.20
2022-07-29T22:01:20.396Z,30.20
2022-07-29T22:03:53.101Z,30.20
2022-07-29T22:06:26.057Z,30.20
2022-07-29T22:08:58.721Z,30.20
2022-07-29T22:11:31.471Z,30.20
2022-07-29T22:14:05.744Z,30.10
2022-07-29T22:16:38.563Z,30.20
2022-07-29T22:19:11.317Z,30.10
2022-07-29T22:21:43.951Z,30.10
2022-07-29T22:24:16.624Z,30.10
2022-07-29T22:26:49.254Z,30.10
2022-07-29T22:29:22.002Z,30.10
2022-07-29T22:31:54.734Z,30.10
2022-07-29T22:34:37.026Z,30.10
2022-07-29T22:37:10.840Z,30.10
2022-07-29T22:39:43.498Z,30.10
2022-07-29T22:42:16.221Z,30.00
2022-07-29T22:44:48.854Z,30.00
2022-07-29T22:47:46.328Z,30.00
2022-07-29T22:50:14.155Z,30.00
2022-07-29T22:52:47.182Z,30.00
2022-07-29T22:55:19.795Z,30.00
2022-07-29T22:57:52.392Z,30.00
2022-07-29T23:00:24.969Z,29.90
2022-07-29T23:02:57.370Z,29.90
2022-07-29T23:05:30.086Z,29.90
2022-07-29T23:08:02.649Z,29.90
2022-07-29T23:10:35.282Z,29.90
2022-07-29T23:13:08.014Z,29.90
2022-07-29T23:15:41.262Z,29.90
2022-07-29T23:18:14.183Z,29.90
2022-07-29T23:20:46.773Z,29.90
2022-07-29T23:23:19.470Z,29.90
2022-07-29T23:25:52.766Z,29.90
2022-07-29T23:28:25.200Z,29.90
2022-07-29T23:30:57.850Z,29.90
2022-07-29T23:33:30.482Z,29.90
2022-07-29T23:36:03.176Z,29.80
2022-07-29T23:38:35.795Z,29.80
2022-07-29T23:41:10.012Z,29.80
2022-07-29T23:43:42.562Z,29.90
2022-07-29T23:46:15.503Z,29.80
2022-07-29T23:48:48.823Z,29.90
2022-07-29T23:51:21.834Z,29.80
2022-07-29T23:53:54.461Z,29.80
2022-07-29T23:56:27.158Z,29.80
2022-07-29T23:58:59.819Z,29.90
